sensor_id;sensor_type;location;lat;lon;timestamp;P1;durP1;ratioP1;P2;durP2;ratioP2
68888;SDS011;55930;47.412;8.790;2022-07-09T00:00:42;5.82;;;1.80;;
68888;SDS011;55930;47.412;8.790;2022-07-09T00:03:08;5.97;;;1.67;;
68888;SDS011;55930;47.412;8.790;2022-07-09T00:05:35;2.67;;;1.20;;
68888;SDS011;55930;47.412;8.790;2022-07-09T00:08:01;5.28;;;1.63;;
68888;SDS011;55930;47.412;8.790;2022-07-09T00:10:26;5.57;;;1.38;;
68888;SDS011;55930;47.412;8.790;2022-07-09T00:12:52;5.07;;;1.58;;
68888;SDS011;55930;47.412;8.790;2022-07-09T00:15:19;3.25;;;1.63;;
68888;SDS011;55930;47.412;8.790;2022-07-09T00:17:45;3.97;;;1.30;;
68888;SDS011;55930;47.412;8.790;2022-07-09T00:20:10;5.28;;;1.90;;
68888;SDS011;55930;47.412;8.790;2022-07-09T00:22:36;4.07;;;1.55;;
68888;SDS011;55930;47.412;8.790;2022-07-09T00:25:01;6.15;;;1.63;;
68888;SDS011;55930;47.412;8.790;2022-07-09T00:27:27;7.55;;;1.60;;
68888;SDS011;55930;47.412;8.790;2022-07-09T00:29:53;2.78;;;1.33;;
68888;SDS011;55930;47.412;8.790;2022-07-09T00:32:18;4.28;;;1.50;;
68888;SDS011;55930;47.412;8.790;2022-07-09T00:34:44;3.58;;;1.35;;
68888;SDS011;55930;47.412;8.790;2022-07-09T00:37:12;5.60;;;1.58;;
68888;SDS011;55930;47.412;8.790;2022-07-09T00:39:40;4.03;;;1.75;;
68888;SDS011;55930;47.412;8.790;2022-07-09T00:42:06;3.85;;;1.60;;
68888;SDS011;55930;47.412;8.790;2022-07-09T00:44:35;2.28;;;1.25;;
68888;SDS011;55930;47.412;8.790;2022-07-09T00:47:02;5.53;;;1.63;;
68888;SDS011;55930;47.412;8.790;2022-07-09T00:49:32;3.83;;;1.50;;
68888;SDS011;55930;47.412;8.790;2022-07-09T00:52:02;4.47;;;1.48;;
68888;SDS011;55930;47.412;8.790;2022-07-09T00:54:29;4.78;;;2.03;;
68888;SDS011;55930;47.412;8.790;2022-07-09T00:56:55;3.30;;;1.25;;
68888;SDS011;55930;47.412;8.790;2022-07-09T00:59:23;5.40;;;1.60;;
68888;SDS011;55930;47.412;8.790;2022-07-09T01:01:49;6.18;;;1.70;;
68888;SDS011;55930;47.412;8.790;2022-07-09T01:04:15;5.97;;;1.80;;
68888;SDS011;55930;47.412;8.790;2022-07-09T01:06:41;6.07;;;2.10;;
68888;SDS011;55930;47.412;8.790;2022-07-09T01:09:07;2.60;;;1.38;;
68888;SDS011;55930;47.412;8.790;2022-07-09T01:11:33;3.53;;;1.70;;
68888;SDS011;55930;47.412;8.790;2022-07-09T01:13:58;2.10;;;1.25;;
68888;SDS011;55930;47.412;8.790;2022-07-09T01:16:31;3.85;;;1.60;;
68888;SDS011;55930;47.412;8.790;2022-07-09T01:18:57;3.92;;;1.38;;
68888;SDS011;55930;47.412;8.790;2022-07-09T01:21:23;3.35;;;1.50;;
68888;SDS011;55930;47.412;8.790;2022-07-09T01:23:48;7.05;;;1.75;;
68888;SDS011;55930;47.412;8.790;2022-07-09T01:26:14;7.05;;;1.80;;
68888;SDS011;55930;47.412;8.790;2022-07-09T01:28:40;6.70;;;1.63;;
68888;SDS011;55930;47.412;8.790;2022-07-09T01:31:05;3.00;;;1.30;;
68888;SDS011;55930;47.412;8.790;2022-07-09T01:33:31;2.97;;;1.30;;
68888;SDS011;55930;47.412;8.790;2022-07-09T01:35:58;3.78;;;1.60;;
68888;SDS011;55930;47.412;8.790;2022-07-09T01:38:25;2.95;;;1.40;;
68888;SDS011;55930;47.412;8.790;2022-07-09T01:40:51;3.28;;;1.60;;
68888;SDS011;55930;47.412;8.790;2022-07-09T01:43:19;3.50;;;1.42;;
68888;SDS011;55930;47.412;8.790;2022-07-09T01:45:44;5.45;;;1.67;;
68888;SDS011;55930;47.412;8.790;2022-07-09T01:48:12;4.55;;;1.70;;
68888;SDS011;55930;47.412;8.790;2022-07-09T01:50:38;2.47;;;1.20;;
68888;SDS011;55930;47.412;8.790;2022-07-09T01:53:03;3.30;;;1.60;;
68888;SDS011;55930;47.412;8.790;2022-07-09T01:55:29;4.70;;;1.73;;
68888;SDS011;55930;47.412;8.790;2022-07-09T01:57:55;4.80;;;1.85;;
68888;SDS011;55930;47.412;8.790;2022-07-09T02:00:20;7.45;;;1.80;;
68888;SDS011;55930;47.412;8.790;2022-07-09T02:02:45;4.38;;;1.60;;
68888;SDS011;55930;47.412;8.790;2022-07-09T02:05:11;3.67;;;1.60;;
68888;SDS011;55930;47.412;8.790;2022-07-09T02:07:37;3.67;;;1.80;;
68888;SDS011;55930;47.412;8.790;2022-07-09T02:10:03;3.90;;;1.83;;
68888;SDS011;55930;47.412;8.790;2022-07-09T02:12:29;4.22;;;1.90;;
68888;SDS011;55930;47.412;8.790;2022-07-09T02:14:55;5.78;;;1.77;;
68888;SDS011;55930;47.412;8.790;2022-07-09T02:17:20;2.95;;;1.58;;
68888;SDS011;55930;47.412;8.790;2022-07-09T02:19:45;5.45;;;2.22;;
68888;SDS011;55930;47.412;8.790;2022-07-09T02:22:13;4.85;;;1.65;;
68888;SDS011;55930;47.412;8.790;2022-07-09T02:24:39;2.80;;;1.50;;
68888;SDS011;55930;47.412;8.790;2022-07-09T02:27:04;5.25;;;1.70;;
68888;SDS011;55930;47.412;8.790;2022-07-09T02:29:30;5.78;;;1.85;;
68888;SDS011;55930;47.412;8.790;2022-07-09T02:34:26;3.90;;;1.70;;
68888;SDS011;55930;47.412;8.790;2022-07-09T02:36:52;4.13;;;1.65;;
68888;SDS011;55930;47.412;8.790;2022-07-09T02:39:17;4.22;;;1.60;;
68888;SDS011;55930;47.412;8.790;2022-07-09T02:41:45;3.63;;;1.50;;
68888;SDS011;55930;47.412;8.790;2022-07-09T02:44:10;3.90;;;1.60;;
68888;SDS011;55930;47.412;8.790;2022-07-09T02:46:36;3.30;;;1.23;;
68888;SDS011;55930;47.412;8.790;2022-07-09T02:49:01;6.65;;;1.50;;
68888;SDS011;55930;47.412;8.790;2022-07-09T02:51:27;4.07;;;2.00;;
68888;SDS011;55930;47.412;8.790;2022-07-09T02:53:53;4.78;;;1.90;;
68888;SDS011;55930;47.412;8.790;2022-07-09T02:56:21;2.65;;;1.73;;
68888;SDS011;55930;47.412;8.790;2022-07-09T02:58:46;5.32;;;1.90;;
68888;SDS011;55930;47.412;8.790;2022-07-09T03:01:11;4.18;;;2.13;;
68888;SDS011;55930;47.412;8.790;2022-07-09T03:03:37;4.47;;;2.00;;
68888;SDS011;55930;47.412;8.790;2022-07-09T03:06:04;5.13;;;2.25;;
68888;SDS011;55930;47.412;8.790;2022-07-09T03:08:33;3.17;;;2.10;;
68888;SDS011;55930;47.412;8.790;2022-07-09T03:10:58;6.88;;;2.25;;
68888;SDS011;55930;47.412;8.790;2022-07-09T03:13:24;4.80;;;2.13;;
68888;SDS011;55930;47.412;8.790;2022-07-09T03:15:49;4.00;;;1.92;;
68888;SDS011;55930;47.412;8.790;2022-07-09T03:18:15;4.63;;;2.00;;
68888;SDS011;55930;47.412;8.790;2022-07-09T03:20:40;4.57;;;1.90;;
68888;SDS011;55930;47.412;8.790;2022-07-09T03:23:05;7.18;;;2.72;;
68888;SDS011;55930;47.412;8.790;2022-07-09T03:25:31;8.20;;;2.63;;
68888;SDS011;55930;47.412;8.790;2022-07-09T03:27:57;6.30;;;2.08;;
68888;SDS011;55930;47.412;8.790;2022-07-09T03:30:23;4.60;;;1.77;;
68888;SDS011;55930;47.412;8.790;2022-07-09T03:32:48;4.18;;;1.92;;
68888;SDS011;55930;47.412;8.790;2022-07-09T03:35:17;7.70;;;2.28;;
68888;SDS011;55930;47.412;8.790;2022-07-09T03:37:43;4.85;;;1.95;;
68888;SDS011;55930;47.412;8.790;2022-07-09T03:40:08;5.40;;;2.70;;
68888;SDS011;55930;47.412;8.790;2022-07-09T03:42:34;3.78;;;2.00;;
68888;SDS011;55930;47.412;8.790;2022-07-09T03:45:02;4.57;;;1.98;;
68888;SDS011;55930;47.412;8.790;2022-07-09T03:47:27;6.15;;;2.10;;
68888;SDS011;55930;47.412;8.790;2022-07-09T03:49:53;3.50;;;1.73;;
68888;SDS011;55930;47.412;8.790;2022-07-09T03:52:18;6.05;;;2.00;;
68888;SDS011;55930;47.412;8.790;2022-07-09T03:54:43;4.47;;;1.83;;
68888;SDS011;55930;47.412;8.790;2022-07-09T03:57:09;7.32;;;2.13;;
68888;SDS011;55930;47.412;8.790;2022-07-09T03:59:35;3.67;;;1.85;;
68888;SDS011;55930;47.412;8.790;2022-07-09T04:02:00;4.38;;;1.63;;
68888;SDS011;55930;47.412;8.790;2022-07-09T04:04:30;4.47;;;1.48;;
68888;SDS011;55930;47.412;8.790;2022-07-09T04:06:56;6.43;;;1.80;;
68888;SDS011;55930;47.412;8.790;2022-07-09T04:09:23;6.78;;;1.90;;
68888;SDS011;55930;47.412;8.790;2022-07-09T04:11:49;4.82;;;2.28;;
68888;SDS011;55930;47.412;8.790;2022-07-09T04:14:14;7.07;;;2.45;;
68888;SDS011;55930;47.412;8.790;2022-07-09T04:16:40;3.90;;;1.60;;
68888;SDS011;55930;47.412;8.790;2022-07-09T04:19:06;3.20;;;2.13;;
68888;SDS011;55930;47.412;8.790;2022-07-09T04:21:32;5.63;;;1.80;;
68888;SDS011;55930;47.412;8.790;2022-07-09T04:23:57;5.68;;;1.80;;
68888;SDS011;55930;47.412;8.790;2022-07-09T04:26:23;5.15;;;1.90;;
68888;SDS011;55930;47.412;8.790;2022-07-09T04:28:49;4.75;;;1.73;;
68888;SDS011;55930;47.412;8.790;2022-07-09T04:31:16;4.07;;;1.80;;
68888;SDS011;55930;47.412;8.790;2022-07-09T04:33:44;3.63;;;1.90;;
68888;SDS011;55930;47.412;8.790;2022-07-09T04:36:10;3.83;;;1.75;;
68888;SDS011;55930;47.412;8.790;2022-07-09T04:38:35;5.60;;;1.70;;
68888;SDS011;55930;47.412;8.790;2022-07-09T04:41:01;3.83;;;1.90;;
68888;SDS011;55930;47.412;8.790;2022-07-09T04:43:26;4.25;;;1.70;;
68888;SDS011;55930;47.412;8.790;2022-07-09T04:45:52;4.93;;;1.92;;
68888;SDS011;55930;47.412;8.790;2022-07-09T04:48:17;8.40;;;3.78;;
68888;SDS011;55930;47.412;8.790;2022-07-09T04:50:43;6.25;;;2.30;;
68888;SDS011;55930;47.412;8.790;2022-07-09T04:53:08;4.35;;;1.80;;
68888;SDS011;55930;47.412;8.790;2022-07-09T04:55:34;4.43;;;2.08;;
68888;SDS011;55930;47.412;8.790;2022-07-09T04:58:01;4.25;;;2.13;;
68888;SDS011;55930;47.412;8.790;2022-07-09T05:00:27;4.47;;;2.35;;
68888;SDS011;55930;47.412;8.790;2022-07-09T05:02:52;5.60;;;2.40;;
68888;SDS011;55930;47.412;8.790;2022-07-09T05:05:20;5.78;;;2.30;;
68888;SDS011;55930;47.412;8.790;2022-07-09T05:07:50;4.50;;;2.20;;
68888;SDS011;55930;47.412;8.790;2022-07-09T05:10:19;5.35;;;2.63;;
68888;SDS011;55930;47.412;8.790;2022-07-09T05:12:44;3.40;;;2.20;;
68888;SDS011;55930;47.412;8.790;2022-07-09T05:15:10;4.20;;;2.10;;
68888;SDS011;55930;47.412;8.790;2022-07-09T05:17:41;5.63;;;2.40;;
68888;SDS011;55930;47.412;8.790;2022-07-09T05:20:07;4.05;;;2.20;;
68888;SDS011;55930;47.412;8.790;2022-07-09T05:22:35;4.13;;;2.20;;
68888;SDS011;55930;47.412;8.790;2022-07-09T05:25:02;4.72;;;2.53;;
68888;SDS011;55930;47.412;8.790;2022-07-09T05:27:30;9.43;;;2.40;;
68888;SDS011;55930;47.412;8.790;2022-07-09T05:29:58;7.80;;;3.15;;
68888;SDS011;55930;47.412;8.790;2022-07-09T05:32:24;4.90;;;2.40;;
68888;SDS011;55930;47.412;8.790;2022-07-09T05:34:49;4.05;;;2.30;;
68888;SDS011;55930;47.412;8.790;2022-07-09T05:37:15;5.97;;;2.35;;
68888;SDS011;55930;47.412;8.790;2022-07-09T05:39:40;4.70;;;2.13;;
68888;SDS011;55930;47.412;8.790;2022-07-09T05:42:09;2.92;;;2.17;;
68888;SDS011;55930;47.412;8.790;2022-07-09T05:44:37;5.25;;;2.08;;
68888;SDS011;55930;47.412;8.790;2022-07-09T05:47:05;4.50;;;2.10;;
68888;SDS011;55930;47.412;8.790;2022-07-09T05:49:31;3.67;;;2.10;;
68888;SDS011;55930;47.412;8.790;2022-07-09T05:51:56;5.47;;;2.05;;
68888;SDS011;55930;47.412;8.790;2022-07-09T05:54:24;3.45;;;1.95;;
68888;SDS011;55930;47.412;8.790;2022-07-09T05:56:50;2.97;;;1.55;;
68888;SDS011;55930;47.412;8.790;2022-07-09T05:59:16;6.65;;;2.10;;
68888;SDS011;55930;47.412;8.790;2022-07-09T06:01:41;5.13;;;1.85;;
68888;SDS011;55930;47.412;8.790;2022-07-09T06:04:07;7.07;;;2.05;;
68888;SDS011;55930;47.412;8.790;2022-07-09T06:06:36;3.72;;;1.88;;
68888;SDS011;55930;47.412;8.790;2022-07-09T06:09:01;4.80;;;1.90;;
68888;SDS011;55930;47.412;8.790;2022-07-09T06:11:29;4.80;;;2.55;;
68888;SDS011;55930;47.412;8.790;2022-07-09T06:13:54;4.32;;;1.95;;
68888;SDS011;55930;47.412;8.790;2022-07-09T06:16:20;5.45;;;2.00;;
68888;SDS011;55930;47.412;8.790;2022-07-09T06:18:48;5.47;;;2.10;;
68888;SDS011;55930;47.412;8.790;2022-07-09T06:21:13;4.00;;;1.70;;
68888;SDS011;55930;47.412;8.790;2022-07-09T06:23:41;5.63;;;1.80;;
68888;SDS011;55930;47.412;8.790;2022-07-09T06:26:08;6.20;;;1.85;;
68888;SDS011;55930;47.412;8.790;2022-07-09T06:28:37;6.65;;;2.90;;
68888;SDS011;55930;47.412;8.790;2022-07-09T06:31:03;6.63;;;1.80;;
68888;SDS011;55930;47.412;8.790;2022-07-09T06:33:28;3.95;;;1.88;;
68888;SDS011;55930;47.412;8.790;2022-07-09T06:35:53;3.83;;;2.00;;
68888;SDS011;55930;47.412;8.790;2022-07-09T06:38:22;3.03;;;1.63;;
68888;SDS011;55930;47.412;8.790;2022-07-09T06:40:47;6.82;;;2.05;;
68888;SDS011;55930;47.412;8.790;2022-07-09T06:43:15;5.68;;;1.85;;
68888;SDS011;55930;47.412;8.790;2022-07-09T06:45:40;6.10;;;2.33;;
68888;SDS011;55930;47.412;8.790;2022-07-09T06:48:06;4.35;;;2.13;;
68888;SDS011;55930;47.412;8.790;2022-07-09T06:50:31;4.85;;;1.77;;
68888;SDS011;55930;47.412;8.790;2022-07-09T06:52:56;5.57;;;1.75;;
68888;SDS011;55930;47.412;8.790;2022-07-09T06:55:22;5.40;;;1.85;;
68888;SDS011;55930;47.412;8.790;2022-07-09T06:57:47;4.38;;;2.28;;
68888;SDS011;55930;47.412;8.790;2022-07-09T07:00:15;4.68;;;1.80;;
68888;SDS011;55930;47.412;8.790;2022-07-09T07:02:40;7.05;;;1.80;;
68888;SDS011;55930;47.412;8.790;2022-07-09T07:05:08;3.20;;;1.48;;
68888;SDS011;55930;47.412;8.790;2022-07-09T07:07:34;3.30;;;1.60;;
68888;SDS011;55930;47.412;8.790;2022-07-09T07:09:59;4.90;;;1.70;;
68888;SDS011;55930;47.412;8.790;2022-07-09T07:12:24;4.93;;;1.90;;
68888;SDS011;55930;47.412;8.790;2022-07-09T07:14:52;4.43;;;1.80;;
68888;SDS011;55930;47.412;8.790;2022-07-09T07:17:18;3.55;;;1.90;;
68888;SDS011;55930;47.412;8.790;2022-07-09T07:19:43;4.70;;;2.60;;
68888;SDS011;55930;47.412;8.790;2022-07-09T07:22:09;7.30;;;1.95;;
68888;SDS011;55930;47.412;8.790;2022-07-09T07:24:34;5.60;;;1.65;;
68888;SDS011;55930;47.412;8.790;2022-07-09T07:26:59;5.50;;;1.85;;
68888;SDS011;55930;47.412;8.790;2022-07-09T07:29:25;4.45;;;1.80;;
68888;SDS011;55930;47.412;8.790;2022-07-09T07:31:51;6.93;;;1.90;;
68888;SDS011;55930;47.412;8.790;2022-07-09T07:34:17;3.35;;;1.58;;
68888;SDS011;55930;47.412;8.790;2022-07-09T07:36:44;4.90;;;1.60;;
68888;SDS011;55930;47.412;8.790;2022-07-09T07:39:10;5.20;;;1.60;;
68888;SDS011;55930;47.412;8.790;2022-07-09T07:41:35;4.05;;;1.60;;
68888;SDS011;55930;47.412;8.790;2022-07-09T07:44:05;5.17;;;1.73;;
68888;SDS011;55930;47.412;8.790;2022-07-09T07:46:30;3.72;;;1.73;;
68888;SDS011;55930;47.412;8.790;2022-07-09T07:48:55;7.32;;;1.27;;
68888;SDS011;55930;47.412;8.790;2022-07-09T07:51:21;4.20;;;2.40;;
68888;SDS011;55930;47.412;8.790;2022-07-09T07:53:46;6.35;;;1.73;;
68888;SDS011;55930;47.412;8.790;2022-07-09T07:56:12;5.70;;;1.60;;
68888;SDS011;55930;47.412;8.790;2022-07-09T07:58:37;6.28;;;1.90;;
68888;SDS011;55930;47.412;8.790;2022-07-09T08:01:02;6.10;;;1.92;;
68888;SDS011;55930;47.412;8.790;2022-07-09T08:03:33;4.82;;;1.30;;
68888;SDS011;55930;47.412;8.790;2022-07-09T08:06:00;3.35;;;1.30;;
68888;SDS011;55930;47.412;8.790;2022-07-09T08:08:28;4.57;;;1.23;;
68888;SDS011;55930;47.412;8.790;2022-07-09T08:10:54;5.82;;;1.23;;
68888;SDS011;55930;47.412;8.790;2022-07-09T08:13:19;5.55;;;1.92;;
68888;SDS011;55930;47.412;8.790;2022-07-09T08:15:45;4.65;;;1.33;;
68888;SDS011;55930;47.412;8.790;2022-07-09T08:18:10;4.18;;;1.90;;
68888;SDS011;55930;47.412;8.790;2022-07-09T08:20:40;3.83;;;1.45;;
68888;SDS011;55930;47.412;8.790;2022-07-09T08:23:06;4.00;;;1.48;;
68888;SDS011;55930;47.412;8.790;2022-07-09T08:25:32;4.28;;;1.30;;
68888;SDS011;55930;47.412;8.790;2022-07-09T08:28:00;6.28;;;1.50;;
68888;SDS011;55930;47.412;8.790;2022-07-09T08:30:26;5.68;;;1.50;;
68888;SDS011;55930;47.412;8.790;2022-07-09T08:32:53;3.97;;;1.15;;
68888;SDS011;55930;47.412;8.790;2022-07-09T08:35:19;5.53;;;1.50;;
68888;SDS011;55930;47.412;8.790;2022-07-09T08:37:44;4.32;;;1.38;;
68888;SDS011;55930;47.412;8.790;2022-07-09T08:40:12;3.58;;;1.20;;
68888;SDS011;55930;47.412;8.790;2022-07-09T08:42:37;3.05;;;1.35;;
68888;SDS011;55930;47.412;8.790;2022-07-09T08:45:03;3.28;;;1.05;;
68888;SDS011;55930;47.412;8.790;2022-07-09T08:47:33;3.97;;;1.40;;
68888;SDS011;55930;47.412;8.790;2022-07-09T08:50:03;6.43;;;1.70;;
68888;SDS011;55930;47.412;8.790;2022-07-09T08:52:31;4.10;;;1.30;;
68888;SDS011;55930;47.412;8.790;2022-07-09T08:54:59;3.80;;;1.38;;
68888;SDS011;55930;47.412;8.790;2022-07-09T08:57:24;4.72;;;1.60;;
68888;SDS011;55930;47.412;8.790;2022-07-09T08:59:50;2.65;;;1.15;;
68888;SDS011;55930;47.412;8.790;2022-07-09T09:02:15;3.65;;;1.20;;
68888;SDS011;55930;47.412;8.790;2022-07-09T09:04:44;2.85;;;1.25;;
68888;SDS011;55930;47.412;8.790;2022-07-09T09:07:16;3.30;;;1.20;;
68888;SDS011;55930;47.412;8.790;2022-07-09T09:09:43;2.78;;;1.10;;
68888;SDS011;55930;47.412;8.790;2022-07-09T09:12:09;15.10;;;1.80;;
68888;SDS011;55930;47.412;8.790;2022-07-09T09:14:37;4.30;;;1.50;;
68888;SDS011;55930;47.412;8.790;2022-07-09T09:17:09;4.07;;;1.52;;
68888;SDS011;55930;47.412;8.790;2022-07-09T09:19:37;6.03;;;2.28;;
68888;SDS011;55930;47.412;8.790;2022-07-09T09:22:03;3.72;;;1.30;;
68888;SDS011;55930;47.412;8.790;2022-07-09T09:24:29;2.55;;;1.20;;
68888;SDS011;55930;47.412;8.790;2022-07-09T09:26:58;3.28;;;1.23;;
68888;SDS011;55930;47.412;8.790;2022-07-09T09:29:24;6.47;;;1.33;;
68888;SDS011;55930;47.412;8.790;2022-07-09T09:31:51;3.38;;;1.30;;
68888;SDS011;55930;47.412;8.790;2022-07-09T09:34:19;4.50;;;1.58;;
68888;SDS011;55930;47.412;8.790;2022-07-09T09:36:49;4.20;;;1.65;;
68888;SDS011;55930;47.412;8.790;2022-07-09T09:39:17;4.75;;;1.73;;
68888;SDS011;55930;47.412;8.790;2022-07-09T09:41:44;2.78;;;1.55;;
68888;SDS011;55930;47.412;8.790;2022-07-09T09:44:14;3.50;;;1.15;;
68888;SDS011;55930;47.412;8.790;2022-07-09T09:46:42;3.78;;;1.50;;
68888;SDS011;55930;47.412;8.790;2022-07-09T09:49:09;3.25;;;1.38;;
68888;SDS011;55930;47.412;8.790;2022-07-09T09:54:10;3.88;;;1.80;;
68888;SDS011;55930;47.412;8.790;2022-07-09T09:56:40;2.88;;;1.40;;
68888;SDS011;55930;47.412;8.790;2022-07-09T09:59:06;2.55;;;1.17;;
68888;SDS011;55930;47.412;8.790;2022-07-09T10:01:32;5.13;;;1.40;;
68888;SDS011;55930;47.412;8.790;2022-07-09T10:03:58;5.00;;;2.45;;
68888;SDS011;55930;47.412;8.790;2022-07-09T10:06:24;4.00;;;1.50;;
68888;SDS011;55930;47.412;8.790;2022-07-09T10:08:51;3.60;;;1.42;;
68888;SDS011;55930;47.412;8.790;2022-07-09T10:11:17;2.80;;;1.10;;
68888;SDS011;55930;47.412;8.790;2022-07-09T10:13:51;2.42;;;1.02;;
68888;SDS011;55930;47.412;8.790;2022-07-09T10:16:33;5.32;;;1.50;;
68888;SDS011;55930;47.412;8.790;2022-07-09T10:19:07;3.85;;;1.30;;
68888;SDS011;55930;47.412;8.790;2022-07-09T10:21:36;3.25;;;1.40;;
68888;SDS011;55930;47.412;8.790;2022-07-09T10:24:09;4.18;;;1.10;;
68888;SDS011;55930;47.412;8.790;2022-07-09T10:29:16;2.97;;;1.50;;
68888;SDS011;55930;47.412;8.790;2022-07-09T10:31:55;4.10;;;1.20;;
68888;SDS011;55930;47.412;8.790;2022-07-09T10:36:58;3.08;;;1.33;;
68888;SDS011;55930;47.412;8.790;2022-07-09T10:44:41;3.78;;;1.38;;
68888;SDS011;55930;47.412;8.790;2022-07-09T10:47:11;2.78;;;1.20;;
68888;SDS011;55930;47.412;8.790;2022-07-09T10:49:38;3.60;;;1.52;;
68888;SDS011;55930;47.412;8.790;2022-07-09T10:52:04;5.30;;;1.25;;
68888;SDS011;55930;47.412;8.790;2022-07-09T10:54:30;2.53;;;1.10;;
68888;SDS011;55930;47.412;8.790;2022-07-09T10:57:00;4.35;;;2.08;;
68888;SDS011;55930;47.412;8.790;2022-07-09T10:59:26;3.92;;;1.00;;
68888;SDS011;55930;47.412;8.790;2022-07-09T11:01:52;3.30;;;1.15;;
68888;SDS011;55930;47.412;8.790;2022-07-09T11:04:24;2.40;;;0.90;;
68888;SDS011;55930;47.412;8.790;2022-07-09T11:06:49;2.97;;;0.93;;
68888;SDS011;55930;47.412;8.790;2022-07-09T11:09:15;4.25;;;1.20;;
68888;SDS011;55930;47.412;8.790;2022-07-09T11:11:41;2.97;;;1.25;;
68888;SDS011;55930;47.412;8.790;2022-07-09T11:14:08;2.97;;;1.27;;
68888;SDS011;55930;47.412;8.790;2022-07-09T11:16:34;4.55;;;0.90;;
68888;SDS011;55930;47.412;8.790;2022-07-09T11:19:11;3.65;;;1.10;;
68888;SDS011;55930;47.412;8.790;2022-07-09T11:24:39;3.15;;;1.15;;
68888;SDS011;55930;47.412;8.790;2022-07-09T11:27:04;1.80;;;0.80;;
68888;SDS011;55930;47.412;8.790;2022-07-09T11:29:31;2.03;;;0.80;;
68888;SDS011;55930;47.412;8.790;2022-07-09T11:31:56;1.83;;;0.73;;
68888;SDS011;55930;47.412;8.790;2022-07-09T11:34:22;4.30;;;1.02;;
68888;SDS011;55930;47.412;8.790;2022-07-09T11:36:52;1.73;;;0.80;;
68888;SDS011;55930;47.412;8.790;2022-07-09T11:41:57;2.75;;;1.10;;
68888;SDS011;55930;47.412;8.790;2022-07-09T11:49:38;2.67;;;1.10;;
68888;SDS011;55930;47.412;8.790;2022-07-09T11:55:02;2.65;;;0.60;;
68888;SDS011;55930;47.412;8.790;2022-07-09T11:57:30;1.98;;;0.85;;
68888;SDS011;55930;47.412;8.790;2022-07-09T11:59:59;2.53;;;1.05;;
68888;SDS011;55930;47.412;8.790;2022-07-09T12:04:56;2.60;;;1.00;;
68888;SDS011;55930;47.412;8.790;2022-07-09T12:07:23;1.50;;;0.80;;
68888;SDS011;55930;47.412;8.790;2022-07-09T12:09:58;3.20;;;1.15;;
68888;SDS011;55930;47.412;8.790;2022-07-09T12:12:35;3.55;;;0.82;;
68888;SDS011;55930;47.412;8.790;2022-07-09T12:15:01;2.95;;;0.98;;
68888;SDS011;55930;47.412;8.790;2022-07-09T12:17:30;2.80;;;0.80;;
68888;SDS011;55930;47.412;8.790;2022-07-09T12:19:58;3.58;;;1.08;;
68888;SDS011;55930;47.412;8.790;2022-07-09T12:22:24;2.00;;;0.70;;
68888;SDS011;55930;47.412;8.790;2022-07-09T12:24:51;1.27;;;0.57;;
68888;SDS011;55930;47.412;8.790;2022-07-09T12:27:17;1.52;;;0.85;;
68888;SDS011;55930;47.412;8.790;2022-07-09T12:29:43;2.38;;;1.08;;
68888;SDS011;55930;47.412;8.790;2022-07-09T12:32:08;3.10;;;1.15;;
68888;SDS011;55930;47.412;8.790;2022-07-09T12:34:36;2.42;;;0.85;;
68888;SDS011;55930;47.412;8.790;2022-07-09T12:37:01;1.67;;;0.93;;
68888;SDS011;55930;47.412;8.790;2022-07-09T12:39:27;1.80;;;0.55;;
68888;SDS011;55930;47.412;8.790;2022-07-09T12:41:53;2.30;;;0.80;;
68888;SDS011;55930;47.412;8.790;2022-07-09T12:44:18;2.20;;;0.82;;
68888;SDS011;55930;47.412;8.790;2022-07-09T12:46:44;2.65;;;0.70;;
68888;SDS011;55930;47.412;8.790;2022-07-09T12:49:09;1.67;;;0.70;;
68888;SDS011;55930;47.412;8.790;2022-07-09T12:51:37;2.25;;;0.80;;
68888;SDS011;55930;47.412;8.790;2022-07-09T12:54:05;3.30;;;0.88;;
68888;SDS011;55930;47.412;8.790;2022-07-09T12:56:30;1.50;;;0.70;;
68888;SDS011;55930;47.412;8.790;2022-07-09T12:58:56;1.85;;;0.70;;
68888;SDS011;55930;47.412;8.790;2022-07-09T13:01:21;1.92;;;0.70;;
68888;SDS011;55930;47.412;8.790;2022-07-09T13:03:46;3.08;;;0.70;;
68888;SDS011;55930;47.412;8.790;2022-07-09T13:06:12;1.38;;;0.70;;
68888;SDS011;55930;47.412;8.790;2022-07-09T13:08:56;1.90;;;0.70;;
68888;SDS011;55930;47.412;8.790;2022-07-09T13:11:26;1.95;;;0.60;;
68888;SDS011;55930;47.412;8.790;2022-07-09T13:13:54;0.45;;;0.40;;
68888;SDS011;55930;47.412;8.790;2022-07-09T13:16:19;2.00;;;0.70;;
68888;SDS011;55930;47.412;8.790;2022-07-09T13:18:45;1.27;;;0.57;;
68888;SDS011;55930;47.412;8.790;2022-07-09T13:21:10;1.52;;;0.90;;
68888;SDS011;55930;47.412;8.790;2022-07-09T13:23:36;1.92;;;0.68;;
68888;SDS011;55930;47.412;8.790;2022-07-09T13:26:01;0.75;;;0.55;;
68888;SDS011;55930;47.412;8.790;2022-07-09T13:28:27;1.60;;;0.57;;
68888;SDS011;55930;47.412;8.790;2022-07-09T13:30:53;1.17;;;0.57;;
68888;SDS011;55930;47.412;8.790;2022-07-09T13:33:21;2.20;;;0.70;;
68888;SDS011;55930;47.412;8.790;2022-07-09T13:35:46;1.92;;;0.70;;
68888;SDS011;55930;47.412;8.790;2022-07-09T13:38:12;1.42;;;0.60;;
68888;SDS011;55930;47.412;8.790;2022-07-09T13:40:38;1.80;;;0.50;;
68888;SDS011;55930;47.412;8.790;2022-07-09T13:43:06;3.78;;;1.00;;
68888;SDS011;55930;47.412;8.790;2022-07-09T13:45:31;1.58;;;0.73;;
68888;SDS011;55930;47.412;8.790;2022-07-09T13:47:57;3.80;;;1.77;;
68888;SDS011;55930;47.412;8.790;2022-07-09T13:50:23;3.63;;;0.80;;
68888;SDS011;55930;47.412;8.790;2022-07-09T13:52:48;1.25;;;0.60;;
68888;SDS011;55930;47.412;8.790;2022-07-09T13:55:14;2.03;;;0.68;;
68888;SDS011;55930;47.412;8.790;2022-07-09T13:57:42;2.92;;;0.90;;
68888;SDS011;55930;47.412;8.790;2022-07-09T14:00:10;2.13;;;0.80;;
68888;SDS011;55930;47.412;8.790;2022-07-09T14:02:36;1.58;;;0.80;;
68888;SDS011;55930;47.412;8.790;2022-07-09T14:05:02;1.63;;;0.70;;
68888;SDS011;55930;47.412;8.790;2022-07-09T14:07:28;2.15;;;0.80;;
68888;SDS011;55930;47.412;8.790;2022-07-09T14:09:54;2.22;;;0.82;;
68888;SDS011;55930;47.412;8.790;2022-07-09T14:12:24;1.15;;;0.57;;
68888;SDS011;55930;47.412;8.790;2022-07-09T14:14:50;1.50;;;0.80;;
68888;SDS011;55930;47.412;8.790;2022-07-09T14:17:16;2.45;;;0.52;;
68888;SDS011;55930;47.412;8.790;2022-07-09T14:19:46;2.60;;;1.00;;
68888;SDS011;55930;47.412;8.790;2022-07-09T14:22:12;1.80;;;0.60;;
68888;SDS011;55930;47.412;8.790;2022-07-09T14:24:40;1.55;;;0.50;;
68888;SDS011;55930;47.412;8.790;2022-07-09T14:27:05;2.20;;;0.50;;
68888;SDS011;55930;47.412;8.790;2022-07-09T14:29:31;1.55;;;0.50;;
68888;SDS011;55930;47.412;8.790;2022-07-09T14:31:56;1.90;;;0.50;;
68888;SDS011;55930;47.412;8.790;2022-07-09T14:34:24;0.88;;;0.60;;
68888;SDS011;55930;47.412;8.790;2022-07-09T14:36:49;0.85;;;0.50;;
68888;SDS011;55930;47.412;8.790;2022-07-09T14:39:15;2.10;;;0.47;;
68888;SDS011;55930;47.412;8.790;2022-07-09T14:41:41;1.08;;;0.50;;
68888;SDS011;55930;47.412;8.790;2022-07-09T14:44:08;1.20;;;0.50;;
68888;SDS011;55930;47.412;8.790;2022-07-09T14:46:36;1.35;;;0.70;;
68888;SDS011;55930;47.412;8.790;2022-07-09T14:49:02;1.10;;;0.60;;
68888;SDS011;55930;47.412;8.790;2022-07-09T14:51:27;0.85;;;0.52;;
68888;SDS011;55930;47.412;8.790;2022-07-09T14:53:53;1.60;;;0.50;;
68888;SDS011;55930;47.412;8.790;2022-07-09T14:56:18;1.98;;;0.57;;
68888;SDS011;55930;47.412;8.790;2022-07-09T14:58:46;0.75;;;0.40;;
68888;SDS011;55930;47.412;8.790;2022-07-09T15:01:11;2.15;;;0.55;;
68888;SDS011;55930;47.412;8.790;2022-07-09T15:03:37;2.28;;;0.80;;
68888;SDS011;55930;47.412;8.790;2022-07-09T15:06:02;2.75;;;0.50;;
68888;SDS011;55930;47.412;8.790;2022-07-09T15:08:28;2.55;;;1.20;;
68888;SDS011;55930;47.412;8.790;2022-07-09T15:10:53;0.90;;;0.57;;
68888;SDS011;55930;47.412;8.790;2022-07-09T15:13:18;2.00;;;0.60;;
68888;SDS011;55930;47.412;8.790;2022-07-09T15:15:44;2.85;;;0.80;;